createdAt,value
2018-02-03T00:00:04.655Z,59.5
2018-02-03T00:15:04.575Z,60.5
2018-02-03T00:30:05.230Z,60.8
2018-02-03T00:45:05.120Z,61.1
2018-02-03T01:00:04.673Z,61.2
2018-02-03T01:15:04.565Z,61.4
2018-02-03T01:30:06.257Z,61.5
2018-02-03T01:45:08.341Z,61.6
2018-02-03T02:00:04.275Z,61.4
2018-02-03T02:15:05.144Z,60.8
2018-02-03T02:30:04.293Z,61.5
2018-02-03T02:45:05.665Z,62.1
2018-02-03T03:00:05.075Z,61.9
2018-02-03T03:15:04.553Z,61.9
2018-02-03T03:30:04.501Z,62.2
2018-02-03T03:45:07.987Z,62.3
2018-02-03T04:00:05.515Z,62.8
2018-02-03T04:15:04.404Z,62.6
2018-02-03T04:30:04.492Z,63.1
2018-02-03T04:45:04.386Z,63.3
2018-02-03T05:00:04.852Z,63.5
2018-02-03T05:15:04.772Z,63.4
2018-02-03T05:30:04.581Z,63
2018-02-03T05:45:05.091Z,63.6
2018-02-03T06:00:05.073Z,63
2018-02-03T06:15:04.599Z,63.8
2018-02-03T06:30:04.833Z,63.7
2018-02-03T06:45:04.273Z,63.8
2018-02-03T07:00:05.821Z,63.9
2018-02-03T07:15:05.262Z,64.3
2018-02-03T07:30:07.360Z,64
2018-02-03T07:45:05.070Z,64
2018-02-03T08:00:04.720Z,64.4
2018-02-03T08:15:04.842Z,64
2018-02-03T08:30:05.230Z,63.6
2018-02-03T08:45:05.329Z,63.4
2018-02-03T09:00:04.839Z,63.8
2018-02-03T09:15:04.925Z,63.3
2018-02-03T09:30:05.664Z,63.3
2018-02-03T09:45:05.448Z,60.7
2018-02-03T10:00:04.909Z,60.3
2018-02-03T10:15:05.008Z,60.5
2018-02-03T10:30:05.504Z,60.3
2018-02-03T10:45:04.878Z,60
2018-02-03T11:00:07.683Z,58.4
2018-02-03T11:15:05.063Z,58.9
2018-02-03T11:30:04.774Z,57.9
2018-02-03T11:45:05.882Z,57
2018-02-03T12:00:04.411Z,56.5
2018-02-03T12:15:04.484Z,57
2018-02-03T12:30:04.857Z,56.7
2018-02-03T12:45:07.925Z,57
2018-02-03T13:00:15.562Z,56.9
2018-02-03T13:15:05.251Z,57.9
2018-02-03T13:30:11.485Z,56.8
2018-02-03T13:45:05.048Z,56.5
2018-02-03T14:00:04.774Z,57.3
2018-02-03T14:15:04.664Z,56.8
2018-02-03T14:30:05.014Z,57.1
2018-02-03T14:45:04.473Z,58.4
2018-02-03T15:00:04.848Z,58.8
2018-02-03T15:15:04.216Z,59.1
2018-02-03T15:30:04.802Z,59.4
2018-02-03T15:45:04.653Z,59.1
2018-02-03T16:00:05.052Z,59.6
2018-02-03T16:15:04.936Z,59.6
2018-02-03T16:30:04.605Z,60.5
2018-02-03T16:45:05.003Z,62.4
2018-02-03T17:00:04.408Z,62.4
2018-02-03T17:15:04.822Z,62
2018-02-03T17:30:04.413Z,62.2
2018-02-03T17:45:06.030Z,62.4
2018-02-03T18:00:04.479Z,62.3
2018-02-03T18:15:04.358Z,63.6
2018-02-03T18:30:05.753Z,64.5
2018-02-03T18:45:05.578Z,64.7
2018-02-03T19:00:05.492Z,64.6
2018-02-03T19:15:08.324Z,64.9
2018-02-03T19:30:05.352Z,65.3
2018-02-03T19:45:04.860Z,65.9
2018-02-03T20:00:05.720Z,65.8
2018-02-03T20:15:05.310Z,66
2018-02-03T20:30:06.631Z,66.1
2018-02-03T20:45:06.373Z,66.6
2018-02-03T21:00:04.894Z,66.8
2018-02-03T21:15:04.611Z,66.7
2018-02-03T21:30:05.857Z,66.9
2018-02-03T21:45:05.356Z,66.7
2018-02-03T22:00:04.803Z,67.2
2018-02-03T22:15:04.703Z,66.8
2018-02-03T22:30:04.830Z,67.1
2018-02-03T22:45:05.224Z,66.9
2018-02-03T23:00:04.791Z,67.6
2018-02-03T23:15:04.655Z,67.3
2018-02-03T23:30:04.742Z,67.3
2018-02-03T23:45:04.235Z,67
